Time,TemperatureF,DewpointF,PressureIn,WindDirection,WindDirectionDegrees,WindSpeedMPH,WindSpeedGustMPH,Humidity,HourlyPrecipIn,Conditions,Clouds,dailyrainin,SoftwareType,DateUTC
2018-04-24 00:02:00,67.0,27.0,-100.00,West,277,4.0,12.0,22,-99.99,,,-99.99,,2018-04-24 00:02:00,
2018-04-24 00:32:00,67.0,27.0,-100.00,West,270,6.0,9.0,22,-99.99,,,-99.99,,2018-04-24 00:32:00,
2018-04-24 01:03:00,66.0,28.0,-100.00,West,279,4.0,11.0,24,-99.99,,,-99.99,,2018-04-24 01:03:00,
2018-04-24 01:33:00,65.0,26.0,-100.00,NNE,30,4.0,10.0,23,-99.99,,,-99.99,,2018-04-24 01:33:00,
2018-04-24 02:03:00,62.0,22.0,-100.00,North,360,4.0,9.0,21,-99.99,,,-99.99,,2018-04-24 02:03:00,
2018-04-24 02:32:00,59.0,20.0,-100.00,North,360,3.0,6.0,22,-99.99,,,-99.99,,2018-04-24 02:32:00,
2018-04-24 03:02:00,57.0,20.0,-100.00,North,351,6.0,9.0,23,-99.99,,,-99.99,,2018-04-24 03:02:00,
2018-04-24 03:32:00,55.0,20.0,-100.00,North,351,0.0,8.0,25,-99.99,,,-99.99,,2018-04-24 03:32:00,
2018-04-24 04:03:00,55.0,19.0,-100.00,North,350,5.0,10.0,24,-99.99,,,-99.99,,2018-04-24 04:03:00,
2018-04-24 04:33:00,55.0,18.0,-100.00,West,279,5.0,17.0,23,-99.99,,,-99.99,,2018-04-24 04:33:00,
2018-04-24 05:02:00,51.0,19.0,-100.00,West,279,0.0,4.0,28,-99.99,,,-99.99,,2018-04-24 05:02:00,
2018-04-24 05:33:00,46.0,19.0,-100.00,West,279,0.0,3.0,34,-99.99,,,-99.99,,2018-04-24 05:33:00,
2018-04-24 06:03:00,43.0,20.0,-100.00,West,279,2.0,3.0,40,-99.99,,,-99.99,,2018-04-24 06:03:00,
2018-04-24 06:32:00,41.0,20.0,-100.00,West,279,0.0,3.0,43,-99.99,,,-99.99,,2018-04-24 06:32:00,
2018-04-24 07:02:00,39.0,20.0,-100.00,West,279,2.0,3.0,46,-99.99,,,-99.99,,2018-04-24 07:02:00,
2018-04-24 07:33:00,40.0,20.0,-100.00,West,279,2.0,5.0,45,-99.99,,,-99.99,,2018-04-24 07:33:00,
2018-04-24 08:02:00,42.0,23.0,-100.00,West,279,3.0,6.0,46,-99.99,,,-99.99,,2018-04-24 08:02:00,
2018-04-24 08:33:00,40.0,21.0,-100.00,West,279,4.0,4.0,47,-99.99,,,-99.99,,2018-04-24 08:33:00,
2018-04-24 09:02:00,40.0,22.0,-100.00,West,279,0.0,3.0,49,-99.99,,,-99.99,,2018-04-24 09:02:00,
2018-04-24 09:32:00,38.0,22.0,-100.00,West,279,2.0,4.0,53,-99.99,,,-99.99,,2018-04-24 09:32:00,